Time,TemperatureF,DewpointF,PressureIn,WindDirection,WindDirectionDegrees,WindSpeedMPH,WindSpeedGustMPH,Humidity,HourlyPrecipIn,Conditions,Clouds,dailyrainin,SoftwareType,DateUTC
2013-02-07 00:02:00,52.0,22.0,-100.00,WNW,287,8.0,10.0,31,-99.99,,,-99.99,,2013-02-07 06:02:00,
2013-02-07 00:11:00,52.0,22.0,-100.00,WNW,287,10.0,13.0,31,-99.99,,,-99.99,,2013-02-07 06:11:00,
2013-02-07 00:22:00,52.0,22.0,-100.00,WNW,283,10.0,15.0,31,-99.99,,,-99.99,,2013-02-07 06:22:00,
2013-02-07 00:32:00,50.0,21.0,-100.00,WNW,289,11.0,15.0,32,-99.99,,,-99.99,,2013-02-07 06:32:00,
2013-02-07 00:43:00,50.0,21.0,-100.00,WNW,300,9.0,12.0,32,-99.99,,,-99.99,,2013-02-07 06:43:00,
2013-02-07 00:52:00,50.0,21.0,-100.00,NW,313,8.0,9.0,32,-99.99,,,-99.99,,2013-02-07 06:52:00,
2013-02-07 01:01:00,48.0,20.0,-100.00,NW,309,8.0,12.0,33,-99.99,,,-99.99,,2013-02-07 07:01:00,
2013-02-07 01:11:00,48.0,20.0,-100.00,NW,304,8.0,11.0,33,-99.99,,,-99.99,,2013-02-07 07:11:00,
2013-02-07 01:22:00,48.0,20.0,-100.00,WNW,296,8.0,13.0,32,-99.99,,,-99.99,,2013-02-07 07:22:00,
2013-02-07 01:32:00,50.0,21.0,-100.00,WNW,301,5.0,9.0,31,-99.99,,,-99.99,,2013-02-07 07:32:00,
2013-02-07 01:42:00,50.0,21.0,-100.00,WNW,301,5.0,9.0,31,-99.99,,,-99.99,,2013-02-07 07:42:00,
2013-02-07 01:52:00,50.0,21.0,-100.00,NW,306,7.0,10.0,31,-99.99,,,-99.99,,2013-02-07 07:52:00,
2013-02-07 02:01:00,50.0,21.0,-100.00,NW,306,7.0,10.0,31,-99.99,,,-99.99,,2013-02-07 08:01:00,
2013-02-07 02:11:00,50.0,21.0,-100.00,WNW,297,5.0,8.0,31,-99.99,,,-99.99,,2013-02-07 08:11:00,
2013-02-07 02:21:00,50.0,21.0,-100.00,NW,307,10.0,16.0,31,-99.99,,,-99.99,,2013-02-07 08:21:00,
2013-02-07 02:32:00,50.0,21.0,-100.00,WNW,303,12.0,20.0,32,-99.99,,,-99.99,,2013-02-07 08:32:00,
2013-02-07 02:42:00,48.0,20.0,-100.00,NW,305,14.0,23.0,32,-99.99,,,-99.99,,2013-02-07 08:42:00,
2013-02-07 02:52:00,48.0,20.0,-100.00,NW,306,17.0,24.0,32,-99.99,,,-99.99,,2013-02-07 08:52:00,
2013-02-07 03:01:00,48.0,20.0,-100.00,NW,306,17.0,24.0,32,-99.99,,,-99.99,,2013-02-07 09:01:00,
2013-02-07 03:11:00,48.0,20.0,-100.00,WNW,294,14.0,24.0,33,-99.99,,,-99.99,,2013-02-07 09:11:00,
2013-02-07 03:21:00,48.0,21.0,-100.00,WNW,296,11.0,19.0,34,-99.99,,,-99.99,,2013-02-07 09:21:00,
2013-02-07 03:32:00,48.0,21.0,-100.00,WNW,300,15.0,25.0,34,-99.99,,,-99.99,,2013-02-07 09:32:00,
2013-02-07 03:41:00,48.0,21.0,-100.00,WNW,299,15.0,28.0,34,-99.99,,,-99.99,,2013-02-07 09:41:00,
2013-02-07 03:52:00,48.0,22.0,-100.00,NW,311,19.0,28.0,35,-99.99,,,-99.99,,2013-02-07 09:52:00,
2013-02-07 04:01:00,48.0,22.0,-100.00,NW,311,19.0,28.0,35,-99.99,,,-99.99,,2013-02-07 10:01:00,
2013-02-07 04:11:00,48.0,23.0,-100.00,NW,307,20.0,34.0,36,-99.99,,,-99.99,,2013-02-07 10:11:00,
2013-02-07 04:22:00,48.0,23.0,-100.00,NW,309,25.0,37.0,36,-99.99,,,-99.99,,2013-02-07 10:22:00,
2013-02-07 04:32:00,46.0,22.0,-100.00,NW,310,27.0,41.0,37,-99.99,,,-99.99,,2013-02-07 10:32:00,
2013-02-07 04:42:00,46.0,22.0,-100.00,NW,311,27.0,38.0,38,-99.99,,,-99.99,,2013-02-07 10:42:00,
2013-02-07 04:51:00,46.0,22.0,-100.00,NW,311,30.0,45.0,38,-99.99,,,-99.99,,2013-02-07 10:51:00,
2013-02-07 05:01:00,46.0,23.0,-100.00,NW,313,29.0,45.0,39,-99.99,,,-99.99,,2013-02-07 11:01:00,
2013-02-07 05:11:00,46.0,23.0,-100.00,NW,314,36.0,50.0,40,-99.99,,,-99.99,,2013-02-07 11:11:00,
2013-02-07 05:22:00,46.0,24.0,-100.00,NW,314,38.0,50.0,41,-99.99,,,-99.99,,2013-02-07 11:22:00,
2013-02-07 05:32:00,46.0,25.0,-100.00,NW,314,36.0,46.0,43,-99.99,,,-99.99,,2013-02-07 11:32:00,
2013-02-07 05:44:00,46.0,26.0,-100.00,NW,312,37.0,49.0,44,-99.99,,,-99.99,,2013-02-07 11:44:00,
2013-02-07 05:52:00,46.0,26.0,-100.00,NW,313,37.0,49.0,44,-99.99,,,-99.99,,2013-02-07 11:52:00,
2013-02-07 06:02:00,46.0,26.0,-100.00,NW,314,37.0,53.0,45,-99.99,,,-99.99,,2013-02-07 12:02:00,
2013-02-07 06:11:00,46.0,27.0,-100.00,NW,314,37.0,49.0,46,-99.99,,,-99.99,,2013-02-07 12:11:00,
2013-02-07 06:22:00,46.0,27.0,-100.00,NW,315,35.0,46.0,47,-99.99,,,-99.99,,2013-02-07 12:22:00,
2013-02-07 06:32:00,46.0,28.0,-100.00,NW,315,36.0,48.0,48,-99.99,,,-99.99,,2013-02-07 12:32:00,
2013-02-07 06:42:00,46.0,28.0,-100.00,NW,316,37.0,49.0,49,-99.99,,,-99.99,,2013-02-07 12:42:00,
2013-02-07 06:52:00,46.0,29.0,-100.00,NW,319,37.0,50.0,50,-99.99,,,-99.99,,2013-02-07 12:52:00,
2013-02-07 07:02:00,45.0,28.0,-100.00,NW,318,39.0,49.0,51,-99.99,,,-99.99,,2013-02-07 13:02:00,
2013-02-07 07:12:00,45.0,29.0,-100.00,NW,318,34.0,45.0,53,-99.99,,,-99.99,,2013-02-07 13:12:00,
2013-02-07 07:22:00,45.0,28.0,-100.00,NW,315,33.0,43.0,52,-99.99,,,-99.99,,2013-02-07 13:22:00,
2013-02-07 07:32:00,45.0,28.0,-100.00,NW,321,31.0,40.0,52,-99.99,,,-99.99,,2013-02-07 13:32:00,
2013-02-07 07:42:00,45.0,28.0,-100.00,NW,321,31.0,40.0,52,-99.99,,,-99.99,,2013-02-07 13:42:00,
2013-02-07 07:52:00,45.0,29.0,-100.00,NW,322,31.0,40.0,53,-99.99,,,-99.99,,2013-02-07 13:52:00,
2013-02-07 08:01:00,45.0,29.0,-100.00,NW,322,30.0,39.0,53,-99.99,,,-99.99,,2013-02-07 14:01:00,
2013-02-07 08:11:00,45.0,29.0,-100.00,NW,320,32.0,44.0,53,-99.99,,,-99.99,,2013-02-07 14:11:00,
2013-02-07 08:22:00,45.0,29.0,-100.00,NW,319,31.0,39.0,53,-99.99,,,-99.99,,2013-02-07 14:22:00,
2013-02-07 08:32:00,45.0,29.0,-100.00,NW,321,31.0,41.0,53,-99.99,,,-99.99,,2013-02-07 14:32:00,
2013-02-07 08:42:00,45.0,29.0,-100.00,NW,325,30.0,41.0,53,-99.99,,,-99.99,,2013-02-07 14:42:00,
2013-02-07 08:52:00,45.0,29.0,-100.00,NW,323,27.0,34.0,53,-99.99,,,-99.99,,2013-02-07 14:52:00,
2013-02-07 09:02:00,45.0,29.0,-100.00,NW,323,27.0,34.0,53,-99.99,,,-99.99,,2013-02-07 15:02:00,
2013-02-07 09:11:00,45.0,29.0,-100.00,NW,325,27.0,36.0,53,-99.99,,,-99.99,,2013-02-07 15:11:00,
2013-02-07 09:22:00,45.0,28.0,-100.00,NNW,329,26.0,36.0,52,-99.99,,,-99.99,,2013-02-07 15:22:00,
2013-02-07 09:32:00,46.0,29.0,-100.00,NNW,332,27.0,36.0,51,-99.99,,,-99.99,,2013-02-07 15:32:00,
2013-02-07 09:42:00,46.0,29.0,-100.00,NNW,332,23.0,32.0,51,-99.99,,,-99.99,,2013-02-07 15:42:00,
2013-02-07 09:52:00,46.0,29.0,-100.00,NNW,330,27.0,36.0,50,-99.99,,,-99.99,,2013-02-07 15:52:00,
2013-02-07 10:01:00,46.0,28.0,-100.00,NNW,332,28.0,34.0,49,-99.99,,,-99.99,,2013-02-07 16:01:00,
2013-02-07 10:11:00,46.0,27.0,-100.00,NNW,337,24.0,36.0,47,-99.99,,,-99.99,,2013-02-07 16:11:00,
2013-02-07 10:21:00,46.0,27.0,-100.00,NNW,333,25.0,34.0,46,-99.99,,,-99.99,,2013-02-07 16:21:00,
2013-02-07 10:32:00,46.0,25.0,-100.00,NNW,333,25.0,34.0,43,-99.99,,,-99.99,,2013-02-07 16:32:00,
2013-02-07 10:42:00,46.0,25.0,-100.00,NNW,333,25.0,34.0,43,-99.99,,,-99.99,,2013-02-07 16:42:00,
2013-02-07 10:52:00,48.0,25.0,-100.00,NNW,334,25.0,33.0,40,-99.99,,,-99.99,,2013-02-07 16:52:00,
2013-02-07 11:01:00,48.0,25.0,-100.00,NNW,334,25.0,33.0,40,-99.99,,,-99.99,,2013-02-07 17:01:00,
2013-02-07 11:11:00,48.0,24.0,-100.00,NNW,328,26.0,36.0,39,-99.99,,,-99.99,,2013-02-07 17:11:00,
2013-02-07 11:21:00,48.0,25.0,-100.00,NNW,346,23.0,32.0,40,-99.99,,,-99.99,,2013-02-07 17:21:00,
2013-02-07 11:32:00,48.0,24.0,-100.00,NNW,337,20.0,34.0,39,-99.99,,,-99.99,,2013-02-07 17:32:00,
2013-02-07 11:43:00,48.0,24.0,-100.00,NNW,336,23.0,35.0,38,-99.99,,,-99.99,,2013-02-07 17:43:00,
2013-02-07 11:52:00,50.0,24.0,-100.00,NNW,332,18.0,33.0,36,-99.99,,,-99.99,,2013-02-07 17:52:00,
2013-02-07 12:01:00,50.0,24.0,-100.00,NNW,332,18.0,33.0,36,-99.99,,,-99.99,,2013-02-07 18:01:00,
2013-02-07 12:11:00,50.0,23.0,-100.00,NNW,333,21.0,28.0,35,-99.99,,,-99.99,,2013-02-07 18:11:00,
2013-02-07 12:23:00,50.0,21.0,-100.00,NW,321,18.0,30.0,32,-99.99,,,-99.99,,2013-02-07 18:23:00,
2013-02-07 12:32:00,50.0,21.0,-100.00,NW,326,18.0,27.0,31,-99.99,,,-99.99,,2013-02-07 18:32:00,
2013-02-07 12:42:00,50.0,21.0,-100.00,NNW,338,18.0,28.0,31,-99.99,,,-99.99,,2013-02-07 18:42:00,
2013-02-07 12:52:00,52.0,22.0,-100.00,NW,325,21.0,28.0,31,-99.99,,,-99.99,,2013-02-07 18:52:00,
2013-02-07 13:01:00,50.0,21.0,-100.00,NNW,335,20.0,28.0,31,-99.99,,,-99.99,,2013-02-07 19:01:00,
2013-02-07 13:11:00,52.0,22.0,-100.00,NNW,334,14.0,27.0,31,-99.99,,,-99.99,,2013-02-07 19:11:00,
2013-02-07 13:22:00,52.0,21.0,-100.00,NW,324,12.0,18.0,30,-99.99,,,-99.99,,2013-02-07 19:22:00,
2013-02-07 13:32:00,52.0,19.0,-100.00,NW,319,20.0,28.0,27,-99.99,,,-99.99,,2013-02-07 19:32:00,
2013-02-07 13:42:00,52.0,21.0,-100.00,NNW,331,17.0,28.0,30,-99.99,,,-99.99,,2013-02-07 19:42:00,
2013-02-07 13:52:00,50.0,21.0,-100.00,NNW,344,15.0,24.0,31,-99.99,,,-99.99,,2013-02-07 19:52:00,
2013-02-07 14:01:00,52.0,20.0,-100.00,NW,324,18.0,23.0,28,-99.99,,,-99.99,,2013-02-07 20:01:00,
2013-02-07 14:11:00,54.0,21.0,-100.00,WNW,294,14.0,23.0,28,-99.99,,,-99.99,,2013-02-07 20:11:00,
2013-02-07 14:22:00,52.0,20.0,-100.00,NW,316,12.0,20.0,28,-99.99,,,-99.99,,2013-02-07 20:22:00,
2013-02-07 14:31:00,54.0,20.0,-100.00,NW,310,10.0,23.0,26,-99.99,,,-99.99,,2013-02-07 20:31:00,
2013-02-07 14:42:00,54.0,20.0,-100.00,NW,310,10.0,23.0,26,-99.99,,,-99.99,,2013-02-07 20:42:00,
2013-02-07 14:52:00,52.0,17.0,-100.00,NNW,327,17.0,22.0,25,-99.99,,,-99.99,,2013-02-07 20:52:00,
2013-02-07 15:02:00,52.0,17.0,-100.00,NNW,327,17.0,22.0,25,-99.99,,,-99.99,,2013-02-07 21:02:00,
2013-02-07 15:11:00,54.0,18.0,-100.00,NNW,331,13.0,28.0,24,-99.99,,,-99.99,,2013-02-07 21:11:00,
2013-02-07 15:21:00,54.0,18.0,-100.00,NW,326,13.0,19.0,24,-99.99,,,-99.99,,2013-02-07 21:21:00,
2013-02-07 15:32:00,54.0,18.0,-100.00,NNW,343,10.0,16.0,24,-99.99,,,-99.99,,2013-02-07 21:32:00,
2013-02-07 15:42:00,54.0,17.0,-100.00,NW,322,13.0,21.0,23,-99.99,,,-99.99,,2013-02-07 21:42:00,
2013-02-07 15:52:00,54.0,17.0,-100.00,NW,315,13.0,21.0,23,-99.99,,,-99.99,,2013-02-07 21:52:00,
2013-02-07 16:02:00,54.0,17.0,-100.00,NW,316,9.0,16.0,23,-99.99,,,-99.99,,2013-02-07 22:02:00,
2013-02-07 16:11:00,54.0,18.0,-100.00,NNW,336,14.0,20.0,24,-99.99,,,-99.99,,2013-02-07 22:11:00,
2013-02-07 16:21:00,54.0,17.0,-100.00,NNW,336,12.0,19.0,23,-99.99,,,-99.99,,2013-02-07 22:21:00,
2013-02-07 16:32:00,54.0,18.0,-100.00,NNW,345,8.0,18.0,24,-99.99,,,-99.99,,2013-02-07 22:32:00,
2013-02-07 16:42:00,54.0,18.0,-100.00,NNW,346,7.0,13.0,24,-99.99,,,-99.99,,2013-02-07 22:42:00,
2013-02-07 16:51:00,54.0,18.0,-100.00,NW,320,10.0,16.0,24,-99.99,,,-99.99,,2013-02-07 22:51:00,
2013-02-07 17:01:00,55.0,19.0,-100.00,NNW,347,7.0,14.0,24,-99.99,,,-99.99,,2013-02-07 23:01:00,
2013-02-07 17:11:00,54.0,18.0,-100.00,NNW,344,12.0,18.0,24,-99.99,,,-99.99,,2013-02-07 23:11:00,
2013-02-07 17:21:00,54.0,18.0,-100.00,NNW,344,8.0,12.0,24,-99.99,,,-99.99,,2013-02-07 23:21:00,
2013-02-07 17:32:00,54.0,22.0,-100.00,ENE,77,2.0,8.0,29,-99.99,,,-99.99,,2013-02-07 23:32:00,
2013-02-07 17:42:00,52.0,21.0,-100.00,ENE,73,5.0,9.0,30,-99.99,,,-99.99,,2013-02-07 23:42:00,
2013-02-07 17:52:00,52.0,22.0,-100.00,ENE,64,6.0,12.0,31,-99.99,,,-99.99,,2013-02-07 23:52:00,
2013-02-07 18:01:00,50.0,21.0,-100.00,ENE,73,9.0,13.0,32,-99.99,,,-99.99,,2013-02-08 00:01:00,
2013-02-07 18:11:00,50.0,21.0,-100.00,ENE,71,8.0,12.0,32,-99.99,,,-99.99,,2013-02-08 00:11:00,
2013-02-07 18:21:00,50.0,22.0,-100.00,ENE,62,7.0,13.0,33,-99.99,,,-99.99,,2013-02-08 00:21:00,
2013-02-07 18:32:00,48.0,21.0,-100.00,ENE,57,11.0,16.0,34,-99.99,,,-99.99,,2013-02-08 00:32:00,
2013-02-07 18:42:00,48.0,21.0,-100.00,ENE,58,10.0,15.0,34,-99.99,,,-99.99,,2013-02-08 00:42:00,
2013-02-07 18:52:00,48.0,22.0,-100.00,ENE,77,8.0,14.0,35,-99.99,,,-99.99,,2013-02-08 00:52:00,
2013-02-07 19:01:00,46.0,21.0,-100.00,ENE,77,12.0,17.0,36,-99.99,,,-99.99,,2013-02-08 01:01:00,
2013-02-07 19:11:00,46.0,22.0,-100.00,ENE,68,11.0,17.0,37,-99.99,,,-99.99,,2013-02-08 01:11:00,
2013-02-07 19:21:00,46.0,22.0,-100.00,ENE,71,10.0,15.0,38,-99.99,,,-99.99,,2013-02-08 01:21:00,
2013-02-07 19:31:00,46.0,22.0,-100.00,ENE,68,10.0,16.0,38,-99.99,,,-99.99,,2013-02-08 01:31:00,
2013-02-07 19:41:00,45.0,21.0,-100.00,ENE,77,11.0,16.0,39,-99.99,,,-99.99,,2013-02-08 01:41:00,
2013-02-07 19:51:00,45.0,21.0,-100.00,ENE,72,9.0,12.0,39,-99.99,,,-99.99,,2013-02-08 01:51:00,
2013-02-07 20:01:00,45.0,21.0,-100.00,ENE,72,9.0,12.0,39,-99.99,,,-99.99,,2013-02-08 02:01:00,
2013-02-07 20:11:00,45.0,22.0,-100.00,East,83,9.0,15.0,40,-99.99,,,-99.99,,2013-02-08 02:11:00,
2013-02-07 20:21:00,45.0,21.0,-100.00,ENE,76,11.0,16.0,39,-99.99,,,-99.99,,2013-02-08 02:21:00,
2013-02-07 20:32:00,45.0,22.0,-100.00,ENE,77,11.0,17.0,40,-99.99,,,-99.99,,2013-02-08 02:32:00,
2013-02-07 20:42:00,45.0,22.0,-100.00,East,80,10.0,14.0,40,-99.99,,,-99.99,,2013-02-08 02:42:00,
2013-02-07 20:52:00,45.0,22.0,-100.00,East,80,10.0,14.0,40,-99.99,,,-99.99,,2013-02-08 02:52:00,
2013-02-07 21:01:00,45.0,22.0,-100.00,East,79,9.0,12.0,40,-99.99,,,-99.99,,2013-02-08 03:01:00,
2013-02-07 21:12:00,45.0,22.0,-100.00,ENE,78,9.0,12.0,40,-99.99,,,-99.99,,2013-02-08 03:12:00,
2013-02-07 21:22:00,45.0,22.0,-100.00,East,82,11.0,12.0,40,-99.99,,,-99.99,,2013-02-08 03:22:00,
2013-02-07 21:32:00,45.0,22.0,-100.00,East,89,11.0,13.0,40,-99.99,,,-99.99,,2013-02-08 03:32:00,
2013-02-07 21:41:00,43.0,21.0,-100.00,East,84,11.0,13.0,41,-99.99,,,-99.99,,2013-02-08 03:41:00,
2013-02-07 21:52:00,43.0,21.0,-100.00,East,81,11.0,13.0,41,-99.99,,,-99.99,,2013-02-08 03:52:00,
2013-02-07 22:01:00,43.0,21.0,-100.00,East,84,11.0,13.0,41,-99.99,,,-99.99,,2013-02-08 04:01:00,
2013-02-07 22:11:00,43.0,21.0,-100.00,East,81,12.0,14.0,41,-99.99,,,-99.99,,2013-02-08 04:11:00,
2013-02-07 22:21:00,43.0,21.0,-100.00,East,93,12.0,14.0,41,-99.99,,,-99.99,,2013-02-08 04:21:00,
2013-02-07 22:32:00,43.0,21.0,-100.00,East,93,14.0,17.0,41,-99.99,,,-99.99,,2013-02-08 04:32:00,
2013-02-07 22:42:00,43.0,21.0,-100.00,East,93,14.0,18.0,41,-99.99,,,-99.99,,2013-02-08 04:42:00,
2013-02-07 22:51:00,43.0,21.0,-100.00,East,88,15.0,18.0,41,-99.99,,,-99.99,,2013-02-08 04:51:00,
2013-02-07 23:02:00,43.0,21.0,-100.00,East,84,14.0,17.0,41,-99.99,,,-99.99,,2013-02-08 05:02:00,
2013-02-07 23:11:00,43.0,21.0,-100.00,East,87,13.0,16.0,41,-99.99,,,-99.99,,2013-02-08 05:11:00,
2013-02-07 23:22:00,43.0,21.0,-100.00,East,90,14.0,17.0,41,-99.99,,,-99.99,,2013-02-08 05:22:00,
2013-02-07 23:32:00,43.0,21.0,-100.00,East,93,12.0,15.0,41,-99.99,,,-99.99,,2013-02-08 05:32:00,
2013-02-07 23:42:00,43.0,21.0,-100.00,East,93,12.0,15.0,41,-99.99,,,-99.99,,2013-02-08 05:42:00,
2013-02-07 23:52:00,43.0,21.0,-100.00,East,89,13.0,17.0,41,-99.99,,,-99.99,,2013-02-08 05:52:00,